createdAt,value
2022-08-17T00:00:44.062Z,15.60
2022-08-17T00:03:13.590Z,14.52
2022-08-17T00:05:44.579Z,15.02
2022-08-17T00:08:14.372Z,17.00
2022-08-17T00:10:43.992Z,19.33
2022-08-17T00:13:15.987Z,17.80
2022-08-17T00:15:44.920Z,17.70
2022-08-17T00:19:01.411Z,23.05
2022-08-17T00:21:05.270Z,17.20
2022-08-17T00:23:44.264Z,19.13
2022-08-17T00:26:44.303Z,21.77
2022-08-17T00:29:08.345Z,16.70
2022-08-17T00:31:37.618Z,17.25
2022-08-17T00:34:08.876Z,19.15
2022-08-17T00:36:37.254Z,17.27
2022-08-17T00:39:06.175Z,15.88
2022-08-17T00:41:34.669Z,14.73
2022-08-17T00:46:37.409Z,17.83
2022-08-17T00:49:06.793Z,17.00
2022-08-17T00:51:56.326Z,13.73
2022-08-17T00:54:29.537Z,15.90
2022-08-17T00:57:07.763Z,14.52
2022-08-17T00:59:39.606Z,15.07
2022-08-17T01:02:10.596Z,12.57
2022-08-17T01:04:39.341Z,15.65
2022-08-17T01:09:36.073Z,13.05
2022-08-17T01:12:07.864Z,13.48
2022-08-17T01:14:37.697Z,15.02
2022-08-17T01:19:38.626Z,11.80
2022-08-17T01:22:09.947Z,12.88
2022-08-17T01:24:41.328Z,12.90
2022-08-17T01:27:11.530Z,14.40
2022-08-17T01:29:43.854Z,12.50
2022-08-17T01:32:12.891Z,14.23
2022-08-17T01:34:42.903Z,14.43
2022-08-17T01:37:14.172Z,15.52
2022-08-17T01:40:00.496Z,14.82
2022-08-17T01:42:43.406Z,16.17
2022-08-17T01:45:41.688Z,16.17
2022-08-17T01:48:10.663Z,15.02
2022-08-17T01:50:42.210Z,14.45
2022-08-17T01:53:18.677Z,14.20
2022-08-17T01:55:57.749Z,13.52
2022-08-17T01:58:26.165Z,16.13
2022-08-17T02:01:00.947Z,12.48
2022-08-17T02:03:30.670Z,12.05
2022-08-17T02:05:59.205Z,13.82
2022-08-17T02:08:38.842Z,14.35
2022-08-17T02:11:19.356Z,11.13
2022-08-17T02:13:55.114Z,11.85
2022-08-17T02:16:36.954Z,14.88
2022-08-17T02:19:08.843Z,15.77
2022-08-17T02:21:38.839Z,12.27
2022-08-17T02:24:12.144Z,13.52
2022-08-17T02:26:40.497Z,14.23
2022-08-17T02:29:08.690Z,14.82
2022-08-17T02:31:37.031Z,12.60
2022-08-17T02:34:05.463Z,17.10
2022-08-17T02:36:35.504Z,15.02
2022-08-17T02:39:06.668Z,10.70
2022-08-17T02:41:35.148Z,14.80
2022-08-17T02:44:03.983Z,12.38
2022-08-17T02:46:32.523Z,10.93
2022-08-17T02:49:01.182Z,11.70
2022-08-17T02:54:35.772Z,12.75
2022-08-17T02:56:45.703Z,12.18
2022-08-17T02:59:14.079Z,11.75
2022-08-17T03:01:42.470Z,13.40
2022-08-17T03:04:10.731Z,13.30
2022-08-17T03:06:39.076Z,13.15
2022-08-17T03:09:07.312Z,13.27
2022-08-17T03:11:35.518Z,14.57
2022-08-17T03:14:03.707Z,15.93
2022-08-17T03:16:31.991Z,12.70
2022-08-17T03:19:01.527Z,16.48
2022-08-17T03:21:29.953Z,14.70
2022-08-17T03:23:58.175Z,14.15
2022-08-17T03:26:29.799Z,12.27
2022-08-17T03:28:58.255Z,12.77
2022-08-17T03:31:26.435Z,14.00
2022-08-17T03:33:54.765Z,10.88
2022-08-17T03:36:22.845Z,10.00
2022-08-17T03:38:51.145Z,11.48
2022-08-17T03:41:20.481Z,10.63
2022-08-17T03:43:48.675Z,11.35
2022-08-17T03:46:27.332Z,14.27
2022-08-17T03:48:59.657Z,13.88
2022-08-17T03:51:27.945Z,13.27
2022-08-17T03:54:01.911Z,12.52
2022-08-17T03:56:30.214Z,12.00
2022-08-17T03:58:58.397Z,13.02
2022-08-17T04:01:26.803Z,11.68
2022-08-17T04:06:23.233Z,12.55
2022-08-17T04:08:51.376Z,15.18
2022-08-17T04:11:19.669Z,11.18
2022-08-17T04:13:47.754Z,12.38
2022-08-17T04:16:16.025Z,10.55
2022-08-17T04:18:44.399Z,10.50
2022-08-17T04:21:13.265Z,13.77
2022-08-17T04:23:44.875Z,12.65
2022-08-17T04:26:52.892Z,12.30
2022-08-17T04:29:05.254Z,12.32
2022-08-17T04:31:33.572Z,10.40
2022-08-17T04:34:02.142Z,14.43
2022-08-17T04:36:31.282Z,11.40
2022-08-17T04:38:59.845Z,11.52
2022-08-17T04:41:29.367Z,12.23
2022-08-17T04:43:58.215Z,10.73
2022-08-17T04:46:31.350Z,10.73
2022-08-17T04:49:01.047Z,14.88
2022-08-17T04:51:38.524Z,15.65
2022-08-17T04:54:23.443Z,11.45
2022-08-17T04:56:53.528Z,10.85
2022-08-17T04:59:23.276Z,11.70
2022-08-17T05:01:52.532Z,10.75
2022-08-17T05:04:34.089Z,10.45
2022-08-17T05:07:03.843Z,11.05
2022-08-17T05:09:31.917Z,10.63
2022-08-17T05:12:03.859Z,13.48
2022-08-17T05:14:32.456Z,13.75
2022-08-17T05:17:04.142Z,12.30
2022-08-17T05:19:37.661Z,11.77
2022-08-17T05:22:06.601Z,10.57
2022-08-17T05:24:39.004Z,14.65
2022-08-17T05:27:18.927Z,12.48
2022-08-17T05:29:47.589Z,11.68
2022-08-17T05:32:47.896Z,13.25
2022-08-17T05:37:32.804Z,12.70
2022-08-17T05:40:01.178Z,11.13
2022-08-17T05:42:29.433Z,11.10
2022-08-17T05:45:00.791Z,11.02
2022-08-17T05:47:30.891Z,11.07
2022-08-17T05:50:00.035Z,13.00
2022-08-17T05:52:35.959Z,9.98
2022-08-17T05:55:16.581Z,11.30
2022-08-17T05:57:59.484Z,10.07
2022-08-17T06:00:37.768Z,12.55
2022-08-17T06:03:38.211Z,14.25
2022-08-17T06:06:43.487Z,11.35
2022-08-17T06:09:35.764Z,12.98
2022-08-17T06:12:28.778Z,13.20
2022-08-17T06:15:12.462Z,12.48
2022-08-17T06:17:42.339Z,11.05
2022-08-17T06:20:14.768Z,10.90
2022-08-17T06:22:48.218Z,16.08
2022-08-17T06:25:21.886Z,11.38
2022-08-17T06:28:03.455Z,12.73
2022-08-17T06:31:00.739Z,10.52
2022-08-17T06:33:40.530Z,10.95
2022-08-17T06:36:24.139Z,11.18
2022-08-17T06:39:19.084Z,10.10
2022-08-17T06:43:05.150Z,12.63
2022-08-17T06:45:31.463Z,13.35
2022-08-17T06:48:15.878Z,12.02
2022-08-17T06:51:10.482Z,11.18
2022-08-17T06:53:45.075Z,13.73
2022-08-17T06:56:22.085Z,11.27
2022-08-17T06:58:51.285Z,13.98
2022-08-17T07:01:24.319Z,13.23
2022-08-17T07:04:18.600Z,12.85
2022-08-17T07:07:07.229Z,13.18
2022-08-17T07:09:37.917Z,13.80
2022-08-17T07:12:28.847Z,11.90
2022-08-17T07:15:21.265Z,14.13
2022-08-17T07:17:49.946Z,12.30
2022-08-17T07:20:21.918Z,11.68
2022-08-17T07:23:00.663Z,12.90
2022-08-17T07:25:30.121Z,14.15
2022-08-17T07:28:01.153Z,13.25
2022-08-17T07:30:37.183Z,11.57
2022-08-17T07:33:23.060Z,13.45
2022-08-17T07:35:51.975Z,16.75
2022-08-17T07:40:58.096Z,15.63
2022-08-17T07:43:32.733Z,13.73
2022-08-17T07:46:04.003Z,14.27
2022-08-17T07:48:38.577Z,16.65
2022-08-17T07:51:30.077Z,14.35
2022-08-17T07:54:14.362Z,17.63
2022-08-17T07:57:27.987Z,15.00
2022-08-17T08:00:01.493Z,16.88
2022-08-17T08:02:44.305Z,17.65
2022-08-17T08:05:32.868Z,18.33
2022-08-17T08:08:30.859Z,20.23
2022-08-17T08:11:07.596Z,23.08
2022-08-17T08:13:39.221Z,23.02
2022-08-17T08:16:25.123Z,22.73
2022-08-17T08:19:01.888Z,22.10
2022-08-17T08:21:46.178Z,18.95
2022-08-17T08:24:23.308Z,18.35
2022-08-17T08:27:11.278Z,18.88
2022-08-17T08:30:09.478Z,18.60
2022-08-17T08:33:11.977Z,19.02
2022-08-17T08:35:54.982Z,19.30
2022-08-17T08:38:35.393Z,18.90
2022-08-17T08:41:22.005Z,17.20
2022-08-17T08:44:05.442Z,16.38
2022-08-17T08:46:55.727Z,16.90
2022-08-17T08:50:37.071Z,15.15
2022-08-17T08:53:36.438Z,16.60
2022-08-17T08:56:29.693Z,16.42
2022-08-17T08:59:10.527Z,15.93
2022-08-17T09:02:07.740Z,14.50
2022-08-17T09:05:13.298Z,13.65
2022-08-17T09:07:57.305Z,14.50
2022-08-17T09:10:49.110Z,13.68
2022-08-17T09:13:46.425Z,16.75
2022-08-17T09:17:01.150Z,13.57
2022-08-17T09:19:47.706Z,15.43
2022-08-17T09:22:36.395Z,12.95
2022-08-17T09:25:16.293Z,15.93
2022-08-17T09:28:00.490Z,15.00
2022-08-17T09:30:40.998Z,15.23
2022-08-17T09:33:12.618Z,14.10
2022-08-17T09:35:54.464Z,15.30
2022-08-17T09:38:32.486Z,15.43
2022-08-17T09:41:16.069Z,14.07
2022-08-17T09:43:55.631Z,13.07
2022-08-17T09:46:30.942Z,13.20
2022-08-17T09:49:11.201Z,13.00
2022-08-17T09:51:45.671Z,14.07
2022-08-17T09:54:39.615Z,11.98
2022-08-17T09:57:35.825Z,16.98
2022-08-17T10:00:04.257Z,12.93
2022-08-17T10:02:55.160Z,12.52
2022-08-17T10:05:44.191Z,15.10
2022-08-17T10:08:21.768Z,15.95
2022-08-17T10:10:57.031Z,17.42
2022-08-17T10:13:38.827Z,13.73
2022-08-17T10:16:13.510Z,14.65
2022-08-17T10:19:03.187Z,13.45
2022-08-17T10:21:34.667Z,12.20
2022-08-17T10:24:34.488Z,12.70
2022-08-17T10:27:08.159Z,12.63
2022-08-17T10:29:48.992Z,12.05
2022-08-17T10:32:46.903Z,12.93
2022-08-17T10:35:50.580Z,13.98
2022-08-17T10:38:43.802Z,11.52
2022-08-17T10:41:33.862Z,11.48
2022-08-17T10:44:38.860Z,12.02
2022-08-17T10:47:13.293Z,14.05
2022-08-17T10:49:48.081Z,13.95
2022-08-17T10:52:42.562Z,15.27
2022-08-17T10:55:19.206Z,12.20
2022-08-17T10:57:50.145Z,12.43
2022-08-17T11:00:27.884Z,13.70
2022-08-17T11:02:58.501Z,13.55
2022-08-17T11:05:42.920Z,12.30
2022-08-17T11:08:50.824Z,10.68
2022-08-17T11:11:25.325Z,11.70
2022-08-17T11:14:06.214Z,11.18
2022-08-17T11:16:44.329Z,10.52
2022-08-17T11:19:40.303Z,11.40
2022-08-17T11:22:17.827Z,11.50
2022-08-17T11:24:56.876Z,12.20
2022-08-17T11:27:35.123Z,12.57
2022-08-17T11:30:46.196Z,12.18
2022-08-17T11:33:32.889Z,12.63
2022-08-17T11:36:10.124Z,11.68
2022-08-17T11:39:17.737Z,13.27
2022-08-17T11:41:56.535Z,13.00
2022-08-17T11:47:20.302Z,10.73
2022-08-17T11:50:13.408Z,10.52
2022-08-17T11:52:47.922Z,13.82
2022-08-17T11:55:36.403Z,10.43
2022-08-17T11:58:31.450Z,11.73
2022-08-17T12:01:01.381Z,10.80
2022-08-17T12:03:32.602Z,10.30
2022-08-17T12:06:23.375Z,12.48
2022-08-17T12:09:18.007Z,11.43
2022-08-17T12:12:13.838Z,12.30
2022-08-17T12:17:40.891Z,11.13
2022-08-17T12:20:31.946Z,12.18
2022-08-17T12:23:15.778Z,13.15
2022-08-17T12:25:59.872Z,10.00
2022-08-17T12:28:34.721Z,12.73
2022-08-17T12:31:12.363Z,10.30
2022-08-17T12:33:45.971Z,11.82
2022-08-17T12:36:17.966Z,9.73
2022-08-17T12:38:57.651Z,10.02
2022-08-17T12:41:39.930Z,12.50
2022-08-17T12:44:17.092Z,11.23
2022-08-17T12:46:54.058Z,10.93
2022-08-17T12:49:37.616Z,13.63
2022-08-17T12:52:23.561Z,10.23
2022-08-17T12:55:24.617Z,12.05
2022-08-17T12:57:57.297Z,12.07
2022-08-17T13:00:32.494Z,11.57
2022-08-17T13:03:20.016Z,12.50
2022-08-17T13:06:07.542Z,10.38
2022-08-17T13:08:39.385Z,13.02
2022-08-17T13:11:15.758Z,11.50
2022-08-17T13:13:47.450Z,9.43
2022-08-17T13:16:15.773Z,10.45
2022-08-17T13:18:48.362Z,11.88
2022-08-17T13:21:19.688Z,11.77
2022-08-17T13:24:02.045Z,11.55
2022-08-17T13:26:49.743Z,12.48
2022-08-17T13:29:31.971Z,11.30
2022-08-17T13:32:12.906Z,13.25
2022-08-17T13:35:08.326Z,9.63
2022-08-17T13:37:37.637Z,12.70
2022-08-17T13:40:12.038Z,10.88
2022-08-17T13:42:52.407Z,13.63
2022-08-17T13:45:35.072Z,14.45
2022-08-17T13:48:17.046Z,11.30
2022-08-17T13:50:57.467Z,12.20
2022-08-17T13:53:31.198Z,13.32
2022-08-17T13:56:04.515Z,16.80
2022-08-17T13:58:38.820Z,11.18
2022-08-17T14:01:35.761Z,12.82
2022-08-17T14:04:10.830Z,11.68
2022-08-17T14:07:03.409Z,10.05
2022-08-17T14:09:41.886Z,10.02
2022-08-17T14:12:13.998Z,12.40
2022-08-17T14:14:43.388Z,11.00
2022-08-17T14:17:12.690Z,8.43
2022-08-17T14:19:41.177Z,13.98
2022-08-17T14:22:26.844Z,14.30
2022-08-17T14:24:55.373Z,10.40
2022-08-17T14:27:23.678Z,9.43
2022-08-17T14:29:52.247Z,13.77
2022-08-17T14:34:50.313Z,11.20
2022-08-17T14:37:21.029Z,9.40
2022-08-17T14:39:49.551Z,8.68
2022-08-17T14:42:18.049Z,9.65
2022-08-17T14:44:46.591Z,13.20
2022-08-17T14:47:15.042Z,11.30
2022-08-17T14:49:43.739Z,9.10
2022-08-17T14:52:18.277Z,10.80
2022-08-17T14:54:46.794Z,11.25
2022-08-17T14:57:33.780Z,15.13
2022-08-17T15:00:05.349Z,12.30
2022-08-17T15:02:50.741Z,13.60
2022-08-17T15:05:20.916Z,10.90
2022-08-17T15:07:49.813Z,9.85
2022-08-17T15:10:18.347Z,8.98
2022-08-17T15:12:47.282Z,10.52
2022-08-17T15:15:17.655Z,12.93
2022-08-17T15:17:46.819Z,11.63
2022-08-17T15:20:19.179Z,11.18
2022-08-17T15:22:49.309Z,12.68
2022-08-17T15:25:19.968Z,9.05
2022-08-17T15:27:49.194Z,13.38
2022-08-17T15:30:18.143Z,12.68
2022-08-17T15:32:51.282Z,12.45
2022-08-17T15:35:27.759Z,12.13
2022-08-17T15:38:11.282Z,10.32
2022-08-17T15:40:44.437Z,10.23
2022-08-17T15:43:26.430Z,11.18
2022-08-17T15:46:11.376Z,13.55
2022-08-17T15:48:43.086Z,14.52
2022-08-17T15:51:27.392Z,11.95
2022-08-17T15:53:58.478Z,11.10
2022-08-17T15:56:27.733Z,12.02
2022-08-17T15:58:56.374Z,11.35
2022-08-17T16:02:22.382Z,11.18
2022-08-17T16:04:30.337Z,14.13
2022-08-17T16:07:00.928Z,12.23
2022-08-17T16:09:29.461Z,11.82
2022-08-17T16:11:57.959Z,11.00
2022-08-17T16:14:32.342Z,10.68
2022-08-17T16:17:04.720Z,11.90
2022-08-17T16:19:33.978Z,11.93
2022-08-17T16:22:02.780Z,11.90
2022-08-17T16:29:28.555Z,15.35
2022-08-17T16:31:58.003Z,10.95
2022-08-17T16:34:26.344Z,12.23
2022-08-17T16:36:56.476Z,13.27
2022-08-17T16:39:29.395Z,12.65
2022-08-17T16:41:58.215Z,12.57
2022-08-17T16:46:55.894Z,12.18
2022-08-17T16:49:33.632Z,11.32
2022-08-17T16:52:09.368Z,10.68
2022-08-17T16:54:44.496Z,10.55
2022-08-17T16:57:14.831Z,12.32
2022-08-17T16:59:47.488Z,12.40
2022-08-17T17:02:25.499Z,12.52
2022-08-17T17:05:10.033Z,12.93
2022-08-17T17:08:02.688Z,11.15
2022-08-17T17:10:34.150Z,13.55
2022-08-17T17:13:04.610Z,10.02
2022-08-17T17:15:52.751Z,10.68
2022-08-17T17:18:26.676Z,12.60
2022-08-17T17:20:57.860Z,9.50
2022-08-17T17:24:00.596Z,12.23
2022-08-17T17:26:53.650Z,12.27
2022-08-17T17:29:54.347Z,12.45
2022-08-17T17:32:31.828Z,13.48
2022-08-17T17:35:36.040Z,12.52
2022-08-17T17:38:12.790Z,17.67
2022-08-17T17:40:48.775Z,12.85
2022-08-17T17:43:38.347Z,12.50
2022-08-17T17:46:36.587Z,11.32
2022-08-17T17:49:05.673Z,10.95
2022-08-17T17:52:07.197Z,14.85
2022-08-17T17:54:45.501Z,15.68
2022-08-17T17:57:55.458Z,14.57
2022-08-17T18:00:30.341Z,10.60
2022-08-17T18:03:23.653Z,13.70
2022-08-17T18:05:54.732Z,11.98
2022-08-17T18:08:43.760Z,12.80
2022-08-17T18:12:01.574Z,12.45
2022-08-17T18:14:58.339Z,13.23
2022-08-17T18:17:26.931Z,12.77
2022-08-17T18:19:56.394Z,11.35
2022-08-17T18:22:25.932Z,11.20
2022-08-17T18:24:56.184Z,10.77
2022-08-17T18:27:53.730Z,13.32
2022-08-17T18:30:22.084Z,10.97
2022-08-17T18:32:50.447Z,13.10
2022-08-17T18:35:21.627Z,11.68
2022-08-17T18:37:53.000Z,11.55
2022-08-17T18:40:36.512Z,12.93
2022-08-17T18:43:12.774Z,11.63
2022-08-17T18:45:48.538Z,14.70
2022-08-17T18:48:23.150Z,11.35
2022-08-17T18:50:53.516Z,14.18
2022-08-17T18:53:30.392Z,13.95
2022-08-17T18:56:41.769Z,11.27
2022-08-17T18:59:28.418Z,14.63
2022-08-17T19:05:07.998Z,13.23
2022-08-17T19:07:41.455Z,13.38
2022-08-17T19:10:24.687Z,19.17
2022-08-17T19:13:01.985Z,22.77
2022-08-17T19:16:11.727Z,28.75
2022-08-17T19:19:05.875Z,23.35
2022-08-17T19:21:49.825Z,18.08
2022-08-17T19:24:25.460Z,24.15
2022-08-17T19:27:12.036Z,17.60
2022-08-17T19:29:53.803Z,20.10
2022-08-17T19:32:27.031Z,15.75
2022-08-17T19:34:56.874Z,15.63
2022-08-17T19:37:52.494Z,15.43
2022-08-17T19:40:56.445Z,19.73
2022-08-17T19:43:59.030Z,16.83
2022-08-17T19:47:06.342Z,15.50
2022-08-17T19:49:42.641Z,14.15
2022-08-17T19:52:27.013Z,15.43
2022-08-17T19:55:28.643Z,15.63
2022-08-17T19:57:56.979Z,15.65
2022-08-17T20:00:25.787Z,14.45
2022-08-17T20:05:54.677Z,13.75
2022-08-17T20:08:32.414Z,13.50
2022-08-17T20:11:08.118Z,14.35
2022-08-17T20:13:52.788Z,13.73
2022-08-17T20:16:21.340Z,12.90
2022-08-17T20:18:53.180Z,13.48
2022-08-17T20:21:46.099Z,13.77
2022-08-17T20:24:29.062Z,13.32
2022-08-17T20:27:15.152Z,12.18
2022-08-17T20:30:31.863Z,13.50
2022-08-17T20:33:02.192Z,13.07
2022-08-17T20:35:40.181Z,14.15
2022-08-17T20:38:29.876Z,12.85
2022-08-17T20:40:58.274Z,13.40
2022-08-17T20:43:35.583Z,12.43
2022-08-17T20:46:42.571Z,11.45
2022-08-17T20:49:23.547Z,12.30
2022-08-17T20:52:11.389Z,12.00
2022-08-17T20:54:47.555Z,11.82
2022-08-17T20:57:34.107Z,11.30
2022-08-17T21:00:07.319Z,11.70
2022-08-17T21:02:35.636Z,10.63
2022-08-17T21:05:30.206Z,12.10
2022-08-17T21:08:20.688Z,11.40
2022-08-17T21:10:49.174Z,11.82
2022-08-17T21:13:28.222Z,12.98
2022-08-17T21:16:00.008Z,11.75
2022-08-17T21:18:37.628Z,11.80
2022-08-17T21:21:27.934Z,13.63
2022-08-17T21:24:13.972Z,12.00
2022-08-17T21:27:32.582Z,12.02
2022-08-17T21:30:09.032Z,10.38
2022-08-17T21:32:42.150Z,10.47
2022-08-17T21:35:29.337Z,10.65
2022-08-17T21:38:03.072Z,10.90
2022-08-17T21:40:33.803Z,10.52
2022-08-17T21:43:25.671Z,10.65
2022-08-17T21:46:07.360Z,10.25
2022-08-17T21:48:45.419Z,11.45
2022-08-17T21:51:28.365Z,11.15
2022-08-17T21:54:03.700Z,10.48
2022-08-17T21:56:39.385Z,11.23
2022-08-17T21:59:28.184Z,11.05
2022-08-17T22:01:59.646Z,11.85
2022-08-17T22:04:35.585Z,10.75
2022-08-17T22:07:07.789Z,9.45
2022-08-17T22:09:44.531Z,9.05
2022-08-17T22:12:18.079Z,10.43
2022-08-17T22:15:08.233Z,9.48
2022-08-17T22:17:37.877Z,9.52
2022-08-17T22:20:20.020Z,10.05
2022-08-17T22:22:51.475Z,9.38
2022-08-17T22:25:24.717Z,8.90
2022-08-17T22:27:56.874Z,10.13
2022-08-17T22:30:48.349Z,10.07
2022-08-17T22:33:37.535Z,9.32
2022-08-17T22:36:24.341Z,9.88
2022-08-17T22:39:09.256Z,10.02
2022-08-17T22:41:55.855Z,10.13
2022-08-17T22:44:32.590Z,8.45
2022-08-17T22:47:03.996Z,9.70
2022-08-17T22:49:53.834Z,7.93
2022-08-17T22:52:36.647Z,8.50
2022-08-17T22:55:18.996Z,8.27
2022-08-17T22:57:50.763Z,8.38
2022-08-17T23:00:45.912Z,8.77
2022-08-17T23:03:23.292Z,9.25
2022-08-17T23:06:04.207Z,8.85
2022-08-17T23:08:33.530Z,8.70
2022-08-17T23:11:02.116Z,8.07
2022-08-17T23:13:30.847Z,8.50
2022-08-17T23:15:59.787Z,8.95
2022-08-17T23:20:56.152Z,8.40
2022-08-17T23:23:24.466Z,8.38
2022-08-17T23:25:53.022Z,7.30
2022-08-17T23:28:21.459Z,7.57
2022-08-17T23:30:50.014Z,8.02
2022-08-17T23:33:33.715Z,7.95
2022-08-17T23:36:02.505Z,7.43
2022-08-17T23:41:11.467Z,7.38
2022-08-17T23:43:40.889Z,8.20
2022-08-17T23:46:09.348Z,7.68
2022-08-17T23:48:37.785Z,7.00
2022-08-17T23:51:15.614Z,6.60
2022-08-17T23:53:50.560Z,8.02
2022-08-17T23:56:18.941Z,7.82
2022-08-17T23:58:47.299Z,8.13
